sensor_id;sensor_type;location;lat;lon;timestamp;P1;durP1;ratioP1;P2;durP2;ratioP2
77591;SDS011;66891;46.884;17.436;2023-06-24T03:18:40;4.60;;;0.30;;
77591;SDS011;66891;46.884;17.436;2023-06-24T03:21:08;4.13;;;0.40;;
77591;SDS011;66891;46.884;17.436;2023-06-24T03:23:35;3.35;;;0.40;;
77591;SDS011;66891;46.884;17.436;2023-06-24T03:26:03;2.75;;;0.40;;
77591;SDS011;66891;46.884;17.436;2023-06-24T03:28:30;3.97;;;0.50;;
77591;SDS011;66891;46.884;17.436;2023-06-24T03:30:58;3.20;;;0.40;;
77591;SDS011;66891;46.884;17.436;2023-06-24T03:33:26;3.20;;;0.38;;
77591;SDS011;66891;46.884;17.436;2023-06-24T03:35:54;2.70;;;0.43;;
77591;SDS011;66891;46.884;17.436;2023-06-24T03:38:21;3.92;;;0.40;;
77591;SDS011;66891;46.884;17.436;2023-06-24T03:40:49;3.22;;;0.45;;
77591;SDS011;66891;46.884;17.436;2023-06-24T03:43:16;3.10;;;0.50;;
77591;SDS011;66891;46.884;17.436;2023-06-24T03:45:43;5.20;;;0.40;;
77591;SDS011;66891;46.884;17.436;2023-06-24T03:48:11;5.72;;;0.40;;
77591;SDS011;66891;46.884;17.436;2023-06-24T03:50:39;2.67;;;0.30;;
77591;SDS011;66891;46.884;17.436;2023-06-24T03:53:07;3.10;;;0.40;;
77591;SDS011;66891;46.884;17.436;2023-06-24T03:55:34;3.50;;;0.40;;
77591;SDS011;66891;46.884;17.436;2023-06-24T03:58:02;3.97;;;0.35;;
77591;SDS011;66891;46.884;17.436;2023-06-24T04:00:29;3.13;;;0.38;;
77591;SDS011;66891;46.884;17.436;2023-06-24T04:02:56;3.80;;;0.40;;
77591;SDS011;66891;46.884;17.436;2023-06-24T04:05:27;3.63;;;0.50;;
77591;SDS011;66891;46.884;17.436;2023-06-24T04:07:57;3.53;;;0.43;;
77591;SDS011;66891;46.884;17.436;2023-06-24T04:10:24;3.67;;;0.50;;
77591;SDS011;66891;46.884;17.436;2023-06-24T04:12:51;3.35;;;0.40;;
77591;SDS011;66891;46.884;17.436;2023-06-24T04:15:18;3.63;;;0.50;;
77591;SDS011;66891;46.884;17.436;2023-06-24T04:17:46;3.50;;;0.50;;
77591;SDS011;66891;46.884;17.436;2023-06-24T04:20:13;4.40;;;0.60;;
77591;SDS011;66891;46.884;17.436;2023-06-24T04:22:41;3.15;;;0.50;;
77591;SDS011;66891;46.884;17.436;2023-06-24T04:25:10;4.07;;;0.50;;
77591;SDS011;66891;46.884;17.436;2023-06-24T04:27:38;5.30;;;0.50;;
77591;SDS011;66891;46.884;17.436;2023-06-24T04:30:06;3.55;;;0.50;;
77591;SDS011;66891;46.884;17.436;2023-06-24T04:32:34;3.40;;;0.40;;
77591;SDS011;66891;46.884;17.436;2023-06-24T04:35:01;2.67;;;0.40;;
77591;SDS011;66891;46.884;17.436;2023-06-24T04:37:30;5.65;;;0.60;;
77591;SDS011;66891;46.884;17.436;2023-06-24T04:39:57;2.88;;;0.50;;
77591;SDS011;66891;46.884;17.436;2023-06-24T04:42:26;3.50;;;0.50;;
77591;SDS011;66891;46.884;17.436;2023-06-24T04:44:54;3.97;;;0.70;;
77591;SDS011;66891;46.884;17.436;2023-06-24T04:47:21;3.78;;;0.50;;
77591;SDS011;66891;46.884;17.436;2023-06-24T04:49:49;4.38;;;0.50;;
77591;SDS011;66891;46.884;17.436;2023-06-24T04:52:16;3.92;;;0.57;;
77591;SDS011;66891;46.884;17.436;2023-06-24T04:54:43;4.95;;;0.60;;
77591;SDS011;66891;46.884;17.436;2023-06-24T04:57:22;3.87;;;0.47;;
77591;SDS011;66891;46.884;17.436;2023-06-24T04:59:52;3.70;;;0.50;;
77591;SDS011;66891;46.884;17.436;2023-06-24T05:02:19;5.45;;;0.60;;
77591;SDS011;66891;46.884;17.436;2023-06-24T05:04:46;7.13;;;0.95;;
77591;SDS011;66891;46.884;17.436;2023-06-24T05:07:14;4.70;;;0.70;;
77591;SDS011;66891;46.884;17.436;2023-06-24T05:09:42;3.00;;;0.50;;
77591;SDS011;66891;46.884;17.436;2023-06-24T05:12:10;3.67;;;0.60;;
77591;SDS011;66891;46.884;17.436;2023-06-24T05:14:37;3.80;;;0.50;;
77591;SDS011;66891;46.884;17.436;2023-06-24T05:17:06;3.58;;;0.57;;
77591;SDS011;66891;46.884;17.436;2023-06-24T05:19:33;3.65;;;0.50;;
77591;SDS011;66891;46.884;17.436;2023-06-24T05:22:01;3.00;;;0.70;;
77591;SDS011;66891;46.884;17.436;2023-06-24T05:24:28;3.38;;;0.40;;
77591;SDS011;66891;46.884;17.436;2023-06-24T05:26:55;3.08;;;0.50;;
77591;SDS011;66891;46.884;17.436;2023-06-24T05:29:23;2.70;;;0.50;;
77591;SDS011;66891;46.884;17.436;2023-06-24T05:31:50;3.58;;;0.68;;
77591;SDS011;66891;46.884;17.436;2023-06-24T05:34:19;2.97;;;0.40;;
77591;SDS011;66891;46.884;17.436;2023-06-24T05:36:46;6.13;;;0.55;;
77591;SDS011;66891;46.884;17.436;2023-06-24T05:39:15;5.28;;;0.50;;
77591;SDS011;66891;46.884;17.436;2023-06-24T05:41:42;4.38;;;0.50;;
77591;SDS011;66891;46.884;17.436;2023-06-24T05:44:10;3.45;;;0.40;;
77591;SDS011;66891;46.884;17.436;2023-06-24T05:46:37;2.87;;;0.40;;
77591;SDS011;66891;46.884;17.436;2023-06-24T05:49:05;4.57;;;0.98;;
77591;SDS011;66891;46.884;17.436;2023-06-24T05:51:34;2.63;;;0.40;;
77591;SDS011;66891;46.884;17.436;2023-06-24T05:54:01;4.25;;;0.60;;
77591;SDS011;66891;46.884;17.436;2023-06-24T05:56:28;3.50;;;0.55;;
77591;SDS011;66891;46.884;17.436;2023-06-24T05:58:56;3.60;;;0.50;;
77591;SDS011;66891;46.884;17.436;2023-06-24T06:01:23;3.50;;;0.60;;
77591;SDS011;66891;46.884;17.436;2023-06-24T06:03:51;3.05;;;0.60;;
77591;SDS011;66891;46.884;17.436;2023-06-24T06:06:18;3.47;;;0.50;;
77591;SDS011;66891;46.884;17.436;2023-06-24T06:08:48;3.22;;;0.50;;
77591;SDS011;66891;46.884;17.436;2023-06-24T06:11:15;3.27;;;0.40;;
77591;SDS011;66891;46.884;17.436;2023-06-24T06:13:42;3.20;;;0.43;;
77591;SDS011;66891;46.884;17.436;2023-06-24T06:16:10;3.83;;;0.50;;
77591;SDS011;66891;46.884;17.436;2023-06-24T06:18:37;2.92;;;0.40;;
77591;SDS011;66891;46.884;17.436;2023-06-24T06:21:06;2.78;;;0.40;;
77591;SDS011;66891;46.884;17.436;2023-06-24T06:23:33;3.33;;;0.43;;
77591;SDS011;66891;46.884;17.436;2023-06-24T06:26:02;2.92;;;0.45;;
77591;SDS011;66891;46.884;17.436;2023-06-24T06:28:30;2.10;;;0.40;;
77591;SDS011;66891;46.884;17.436;2023-06-24T06:30:57;2.95;;;0.40;;
77591;SDS011;66891;46.884;17.436;2023-06-24T06:33:25;3.60;;;0.40;;
77591;SDS011;66891;46.884;17.436;2023-06-24T06:35:52;2.43;;;0.30;;
77591;SDS011;66891;46.884;17.436;2023-06-24T06:38:19;2.65;;;0.45;;
77591;SDS011;66891;46.884;17.436;2023-06-24T06:40:47;2.35;;;0.30;;
77591;SDS011;66891;46.884;17.436;2023-06-24T06:43:16;1.88;;;0.35;;
77591;SDS011;66891;46.884;17.436;2023-06-24T06:45:43;2.38;;;0.30;;
77591;SDS011;66891;46.884;17.436;2023-06-24T06:48:11;2.50;;;0.40;;
77591;SDS011;66891;46.884;17.436;2023-06-24T06:50:38;1.77;;;0.30;;
77591;SDS011;66891;46.884;17.436;2023-06-24T06:53:05;2.60;;;0.40;;
77591;SDS011;66891;46.884;17.436;2023-06-24T06:55:33;1.98;;;0.40;;
77591;SDS011;66891;46.884;17.436;2023-06-24T06:58:00;1.90;;;0.40;;
77591;SDS011;66891;46.884;17.436;2023-06-24T07:00:29;1.97;;;0.37;;
77591;SDS011;66891;46.884;17.436;2023-06-24T07:02:57;2.20;;;0.30;;
77591;SDS011;66891;46.884;17.436;2023-06-24T07:05:24;2.17;;;0.30;;
77591;SDS011;66891;46.884;17.436;2023-06-24T07:07:57;3.65;;;0.30;;
77591;SDS011;66891;46.884;17.436;2023-06-24T07:10:24;2.03;;;0.40;;
77591;SDS011;66891;46.884;17.436;2023-06-24T07:12:52;1.67;;;0.30;;
77591;SDS011;66891;46.884;17.436;2023-06-24T07:15:25;2.00;;;0.32;;
77591;SDS011;66891;46.884;17.436;2023-06-24T07:17:54;2.58;;;0.32;;
77591;SDS011;66891;46.884;17.436;2023-06-24T07:20:21;1.40;;;0.30;;
77591;SDS011;66891;46.884;17.436;2023-06-24T07:22:49;1.88;;;0.40;;
77591;SDS011;66891;46.884;17.436;2023-06-24T07:25:16;1.90;;;0.30;;
77591;SDS011;66891;46.884;17.436;2023-06-24T07:27:44;2.05;;;0.30;;
77591;SDS011;66891;46.884;17.436;2023-06-24T07:30:12;1.63;;;0.30;;
77591;SDS011;66891;46.884;17.436;2023-06-24T07:32:39;1.73;;;0.30;;
77591;SDS011;66891;46.884;17.436;2023-06-24T07:35:10;1.40;;;0.30;;
77591;SDS011;66891;46.884;17.436;2023-06-24T07:37:38;2.10;;;0.30;;
77591;SDS011;66891;46.884;17.436;2023-06-24T07:40:06;3.88;;;0.40;;
77591;SDS011;66891;46.884;17.436;2023-06-24T07:42:34;2.58;;;0.40;;
77591;SDS011;66891;46.884;17.436;2023-06-24T07:45:02;1.85;;;0.30;;
77591;SDS011;66891;46.884;17.436;2023-06-24T07:47:32;2.13;;;0.30;;
77591;SDS011;66891;46.884;17.436;2023-06-24T07:49:59;1.40;;;0.30;;
77591;SDS011;66891;46.884;17.436;2023-06-24T07:52:29;2.00;;;0.40;;
77591;SDS011;66891;46.884;17.436;2023-06-24T07:54:56;4.00;;;0.32;;
77591;SDS011;66891;46.884;17.436;2023-06-24T07:57:24;1.33;;;0.30;;
77591;SDS011;66891;46.884;17.436;2023-06-24T07:59:53;2.55;;;0.40;;
77591;SDS011;66891;46.884;17.436;2023-06-24T08:02:21;1.80;;;0.27;;
77591;SDS011;66891;46.884;17.436;2023-06-24T08:04:50;2.05;;;0.40;;
77591;SDS011;66891;46.884;17.436;2023-06-24T08:07:18;1.90;;;0.30;;
77591;SDS011;66891;46.884;17.436;2023-06-24T08:09:47;1.70;;;0.30;;
77591;SDS011;66891;46.884;17.436;2023-06-24T08:12:15;1.80;;;0.30;;
77591;SDS011;66891;46.884;17.436;2023-06-24T08:14:42;3.47;;;0.30;;
77591;SDS011;66891;46.884;17.436;2023-06-24T08:17:09;1.50;;;0.30;;
77591;SDS011;66891;46.884;17.436;2023-06-24T08:19:36;1.60;;;0.30;;
77591;SDS011;66891;46.884;17.436;2023-06-24T08:22:04;1.80;;;0.30;;
77591;SDS011;66891;46.884;17.436;2023-06-24T08:24:32;1.85;;;0.40;;
77591;SDS011;66891;46.884;17.436;2023-06-24T08:27:02;1.73;;;0.30;;
77591;SDS011;66891;46.884;17.436;2023-06-24T08:29:29;1.77;;;0.20;;
77591;SDS011;66891;46.884;17.436;2023-06-24T08:31:57;3.08;;;0.40;;
77591;SDS011;66891;46.884;17.436;2023-06-24T08:34:24;4.10;;;0.40;;
77591;SDS011;66891;46.884;17.436;2023-06-24T08:36:53;1.50;;;0.30;;
77591;SDS011;66891;46.884;17.436;2023-06-24T08:39:20;1.70;;;0.30;;
77591;SDS011;66891;46.884;17.436;2023-06-24T08:41:47;1.10;;;0.20;;
77591;SDS011;66891;46.884;17.436;2023-06-24T08:44:16;2.67;;;0.30;;
77591;SDS011;66891;46.884;17.436;2023-06-24T08:46:43;1.98;;;0.30;;
77591;SDS011;66891;46.884;17.436;2023-06-24T08:49:24;2.88;;;0.40;;
77591;SDS011;66891;46.884;17.436;2023-06-24T08:51:57;1.70;;;0.30;;
77591;SDS011;66891;46.884;17.436;2023-06-24T08:54:30;2.60;;;0.30;;
77591;SDS011;66891;46.884;17.436;2023-06-24T08:57:03;2.83;;;0.40;;
77591;SDS011;66891;46.884;17.436;2023-06-24T08:59:36;2.47;;;0.40;;
77591;SDS011;66891;46.884;17.436;2023-06-24T09:02:05;2.03;;;0.40;;
77591;SDS011;66891;46.884;17.436;2023-06-24T09:04:33;2.37;;;0.40;;
77591;SDS011;66891;46.884;17.436;2023-06-24T09:07:01;2.03;;;0.30;;
77591;SDS011;66891;46.884;17.436;2023-06-24T09:09:35;2.53;;;0.40;;
77591;SDS011;66891;46.884;17.436;2023-06-24T09:12:10;2.45;;;0.30;;
77591;SDS011;66891;46.884;17.436;2023-06-24T09:14:42;1.80;;;0.40;;
77591;SDS011;66891;46.884;17.436;2023-06-24T09:17:15;2.13;;;0.30;;
77591;SDS011;66891;46.884;17.436;2023-06-24T09:19:43;3.05;;;0.32;;
77591;SDS011;66891;46.884;17.436;2023-06-24T09:22:12;3.92;;;0.80;;
77591;SDS011;66891;46.884;17.436;2023-06-24T09:24:44;1.67;;;0.30;;
77591;SDS011;66891;46.884;17.436;2023-06-24T09:27:14;1.52;;;0.30;;
77591;SDS011;66891;46.884;17.436;2023-06-24T09:29:44;1.70;;;0.30;;
77591;SDS011;66891;46.884;17.436;2023-06-24T09:32:11;1.92;;;0.40;;
77591;SDS011;66891;46.884;17.436;2023-06-24T09:34:39;1.80;;;0.30;;
77591;SDS011;66891;46.884;17.436;2023-06-24T09:37:06;1.52;;;0.20;;
77591;SDS011;66891;46.884;17.436;2023-06-24T09:39:37;4.25;;;0.40;;
77591;SDS011;66891;46.884;17.436;2023-06-24T09:42:06;2.90;;;0.30;;
77591;SDS011;66891;46.884;17.436;2023-06-24T09:44:34;4.97;;;0.30;;
77591;SDS011;66891;46.884;17.436;2023-06-24T09:47:03;1.55;;;0.30;;
77591;SDS011;66891;46.884;17.436;2023-06-24T09:49:31;2.00;;;0.30;;
77591;SDS011;66891;46.884;17.436;2023-06-24T09:51:58;3.85;;;0.70;;
77591;SDS011;66891;46.884;17.436;2023-06-24T09:54:28;3.67;;;0.70;;
77591;SDS011;66891;46.884;17.436;2023-06-24T09:57:01;1.60;;;0.35;;
77591;SDS011;66891;46.884;17.436;2023-06-24T09:59:30;3.25;;;0.40;;
77591;SDS011;66891;46.884;17.436;2023-06-24T10:02:00;2.95;;;0.40;;
77591;SDS011;66891;46.884;17.436;2023-06-24T10:04:32;2.53;;;0.40;;
77591;SDS011;66891;46.884;17.436;2023-06-24T10:06:59;1.60;;;0.30;;
77591;SDS011;66891;46.884;17.436;2023-06-24T10:09:29;2.03;;;0.40;;
77591;SDS011;66891;46.884;17.436;2023-06-24T10:12:15;2.80;;;0.50;;
77591;SDS011;66891;46.884;17.436;2023-06-24T10:14:43;2.85;;;0.60;;
77591;SDS011;66891;46.884;17.436;2023-06-24T10:17:11;2.80;;;0.38;;
77591;SDS011;66891;46.884;17.436;2023-06-24T10:19:40;3.60;;;0.40;;
77591;SDS011;66891;46.884;17.436;2023-06-24T10:22:08;3.10;;;0.45;;
77591;SDS011;66891;46.884;17.436;2023-06-24T10:24:37;3.70;;;0.40;;
77591;SDS011;66891;46.884;17.436;2023-06-24T10:27:07;3.40;;;0.60;;
77591;SDS011;66891;46.884;17.436;2023-06-24T10:29:36;2.90;;;0.50;;
77591;SDS011;66891;46.884;17.436;2023-06-24T10:32:05;2.40;;;0.40;;
77591;SDS011;66891;46.884;17.436;2023-06-24T10:34:39;4.40;;;0.50;;
77591;SDS011;66891;46.884;17.436;2023-06-24T10:37:09;3.42;;;0.50;;
77591;SDS011;66891;46.884;17.436;2023-06-24T10:39:38;3.88;;;0.55;;
77591;SDS011;66891;46.884;17.436;2023-06-24T10:44:53;3.43;;;0.60;;
77591;SDS011;66891;46.884;17.436;2023-06-24T10:47:21;3.75;;;0.90;;
77591;SDS011;66891;46.884;17.436;2023-06-24T10:49:51;4.38;;;0.82;;
77591;SDS011;66891;46.884;17.436;2023-06-24T10:52:19;3.30;;;0.75;;
77591;SDS011;66891;46.884;17.436;2023-06-24T10:54:50;4.15;;;1.15;;
77591;SDS011;66891;46.884;17.436;2023-06-24T10:57:22;4.50;;;0.80;;
77591;SDS011;66891;46.884;17.436;2023-06-24T10:59:51;5.43;;;1.02;;
77591;SDS011;66891;46.884;17.436;2023-06-24T11:02:20;4.43;;;1.10;;
77591;SDS011;66891;46.884;17.436;2023-06-24T11:04:51;5.60;;;1.55;;
77591;SDS011;66891;46.884;17.436;2023-06-24T11:07:21;4.80;;;1.15;;
77591;SDS011;66891;46.884;17.436;2023-06-24T11:09:50;4.10;;;0.80;;
77591;SDS011;66891;46.884;17.436;2023-06-24T11:12:18;4.93;;;1.20;;
77591;SDS011;66891;46.884;17.436;2023-06-24T11:14:50;5.35;;;0.98;;
77591;SDS011;66891;46.884;17.436;2023-06-24T11:17:19;4.70;;;1.10;;
77591;SDS011;66891;46.884;17.436;2023-06-24T11:19:48;5.13;;;1.27;;
77591;SDS011;66891;46.884;17.436;2023-06-24T11:22:17;4.40;;;1.20;;
77591;SDS011;66891;46.884;17.436;2023-06-24T11:24:46;4.32;;;1.00;;
77591;SDS011;66891;46.884;17.436;2023-06-24T11:27:14;4.95;;;1.20;;
77591;SDS011;66891;46.884;17.436;2023-06-24T11:29:42;4.38;;;1.13;;
77591;SDS011;66891;46.884;17.436;2023-06-24T11:32:11;6.45;;;1.60;;
77591;SDS011;66891;46.884;17.436;2023-06-24T11:34:38;6.07;;;1.70;;
77591;SDS011;66891;46.884;17.436;2023-06-24T11:37:09;4.38;;;1.10;;
77591;SDS011;66891;46.884;17.436;2023-06-24T11:39:39;4.25;;;1.08;;
77591;SDS011;66891;46.884;17.436;2023-06-24T11:42:07;5.38;;;1.27;;
77591;SDS011;66891;46.884;17.436;2023-06-24T11:44:35;5.00;;;1.00;;
77591;SDS011;66891;46.884;17.436;2023-06-24T11:47:08;4.30;;;1.00;;
77591;SDS011;66891;46.884;17.436;2023-06-24T11:49:49;4.68;;;1.10;;
77591;SDS011;66891;46.884;17.436;2023-06-24T11:52:17;6.47;;;1.50;;
77591;SDS011;66891;46.884;17.436;2023-06-24T11:54:46;5.53;;;1.48;;
77591;SDS011;66891;46.884;17.436;2023-06-24T11:57:17;5.05;;;1.35;;
77591;SDS011;66891;46.884;17.436;2023-06-24T11:59:45;4.47;;;1.07;;
77591;SDS011;66891;46.884;17.436;2023-06-24T12:02:18;4.85;;;1.00;;
77591;SDS011;66891;46.884;17.436;2023-06-24T12:04:46;5.53;;;1.20;;
77591;SDS011;66891;46.884;17.436;2023-06-24T12:07:15;4.97;;;1.23;;
77591;SDS011;66891;46.884;17.436;2023-06-24T12:09:42;5.20;;;1.48;;
77591;SDS011;66891;46.884;17.436;2023-06-24T12:12:11;4.70;;;1.20;;
77591;SDS011;66891;46.884;17.436;2023-06-24T12:14:39;4.30;;;1.17;;
77591;SDS011;66891;46.884;17.436;2023-06-24T12:17:06;4.60;;;1.20;;
77591;SDS011;66891;46.884;17.436;2023-06-24T12:19:34;5.40;;;1.23;;
77591;SDS011;66891;46.884;17.436;2023-06-24T12:22:01;4.50;;;1.10;;
77591;SDS011;66891;46.884;17.436;2023-06-24T12:24:29;5.00;;;1.03;;
77591;SDS011;66891;46.884;17.436;2023-06-24T12:26:57;4.95;;;1.20;;
77591;SDS011;66891;46.884;17.436;2023-06-24T12:29:26;4.32;;;1.15;;
77591;SDS011;66891;46.884;17.436;2023-06-24T12:31:54;5.70;;;0.98;;
77591;SDS011;66891;46.884;17.436;2023-06-24T12:34:21;4.60;;;1.20;;
77591;SDS011;66891;46.884;17.436;2023-06-24T12:36:48;4.07;;;0.80;;
77591;SDS011;66891;46.884;17.436;2023-06-24T12:39:16;7.05;;;1.08;;
77591;SDS011;66891;46.884;17.436;2023-06-24T12:41:46;4.40;;;1.15;;
77591;SDS011;66891;46.884;17.436;2023-06-24T12:44:13;4.65;;;1.30;;
77591;SDS011;66891;46.884;17.436;2023-06-24T12:46:42;3.70;;;0.95;;
77591;SDS011;66891;46.884;17.436;2023-06-24T12:49:09;5.43;;;0.90;;
77591;SDS011;66891;46.884;17.436;2023-06-24T12:51:37;5.38;;;1.08;;
77591;SDS011;66891;46.884;17.436;2023-06-24T12:54:04;4.13;;;0.93;;
77591;SDS011;66891;46.884;17.436;2023-06-24T12:56:31;4.35;;;0.68;;
77591;SDS011;66891;46.884;17.436;2023-06-24T12:58:59;4.68;;;1.05;;
77591;SDS011;66891;46.884;17.436;2023-06-24T13:01:26;4.50;;;1.00;;
77591;SDS011;66891;46.884;17.436;2023-06-24T13:03:55;4.93;;;1.17;;
77591;SDS011;66891;46.884;17.436;2023-06-24T13:06:23;4.28;;;1.10;;
77591;SDS011;66891;46.884;17.436;2023-06-24T13:08:54;4.13;;;0.77;;
77591;SDS011;66891;46.884;17.436;2023-06-24T13:11:21;4.28;;;1.05;;
77591;SDS011;66891;46.884;17.436;2023-06-24T13:13:49;5.47;;;0.83;;
77591;SDS011;66891;46.884;17.436;2023-06-24T13:16:16;3.13;;;0.63;;
77591;SDS011;66891;46.884;17.436;2023-06-24T13:18:43;5.50;;;0.90;;
77591;SDS011;66891;46.884;17.436;2023-06-24T13:21:13;4.07;;;0.90;;
77591;SDS011;66891;46.884;17.436;2023-06-24T13:23:42;4.28;;;1.10;;
77591;SDS011;66891;46.884;17.436;2023-06-24T13:26:09;4.77;;;1.03;;
77591;SDS011;66891;46.884;17.436;2023-06-24T13:28:37;6.57;;;1.20;;
77591;SDS011;66891;46.884;17.436;2023-06-24T13:31:07;4.60;;;0.90;;
77591;SDS011;66891;46.884;17.436;2023-06-24T13:33:35;4.13;;;0.70;;
77591;SDS011;66891;46.884;17.436;2023-06-24T13:36:03;4.38;;;1.15;;
77591;SDS011;66891;46.884;17.436;2023-06-24T13:38:33;3.60;;;0.90;;
77591;SDS011;66891;46.884;17.436;2023-06-24T13:41:00;4.40;;;1.10;;
77591;SDS011;66891;46.884;17.436;2023-06-24T13:43:27;4.90;;;1.10;;
77591;SDS011;66891;46.884;17.436;2023-06-24T13:45:56;3.70;;;0.80;;
77591;SDS011;66891;46.884;17.436;2023-06-24T13:48:23;4.38;;;1.00;;
77591;SDS011;66891;46.884;17.436;2023-06-24T13:50:51;5.10;;;1.10;;
77591;SDS011;66891;46.884;17.436;2023-06-24T13:53:18;5.22;;;1.10;;
77591;SDS011;66891;46.884;17.436;2023-06-24T13:55:47;5.47;;;1.17;;
77591;SDS011;66891;46.884;17.436;2023-06-24T13:58:15;4.80;;;1.20;;
77591;SDS011;66891;46.884;17.436;2023-06-24T14:00:45;4.88;;;1.35;;
77591;SDS011;66891;46.884;17.436;2023-06-24T14:03:12;5.93;;;1.27;;
77591;SDS011;66891;46.884;17.436;2023-06-24T14:05:40;5.00;;;1.25;;
77591;SDS011;66891;46.884;17.436;2023-06-24T14:08:07;5.78;;;1.20;;
77591;SDS011;66891;46.884;17.436;2023-06-24T14:10:34;5.15;;;1.25;;
77591;SDS011;66891;46.884;17.436;2023-06-24T14:13:04;5.05;;;1.45;;
77591;SDS011;66891;46.884;17.436;2023-06-24T14:15:31;4.90;;;1.20;;
77591;SDS011;66891;46.884;17.436;2023-06-24T14:18:00;4.47;;;1.50;;
77591;SDS011;66891;46.884;17.436;2023-06-24T14:20:27;6.85;;;1.55;;
77591;SDS011;66891;46.884;17.436;2023-06-24T14:22:54;5.47;;;0.93;;
77591;SDS011;66891;46.884;17.436;2023-06-24T14:25:22;6.10;;;1.55;;
77591;SDS011;66891;46.884;17.436;2023-06-24T14:27:50;6.00;;;1.47;;
77591;SDS011;66891;46.884;17.436;2023-06-24T14:30:19;4.75;;;1.20;;
77591;SDS011;66891;46.884;17.436;2023-06-24T14:32:48;4.63;;;1.10;;
77591;SDS011;66891;46.884;17.436;2023-06-24T14:35:15;7.60;;;1.70;;
77591;SDS011;66891;46.884;17.436;2023-06-24T14:37:43;5.40;;;1.63;;
77591;SDS011;66891;46.884;17.436;2023-06-24T14:40:10;5.83;;;1.80;;
77591;SDS011;66891;46.884;17.436;2023-06-24T14:42:37;5.50;;;1.67;;
77591;SDS011;66891;46.884;17.436;2023-06-24T14:45:05;7.10;;;1.25;;
77591;SDS011;66891;46.884;17.436;2023-06-24T14:47:34;5.45;;;1.63;;
77591;SDS011;66891;46.884;17.436;2023-06-24T14:50:01;6.55;;;1.58;;
77591;SDS011;66891;46.884;17.436;2023-06-24T14:52:29;5.90;;;1.87;;
77591;SDS011;66891;46.884;17.436;2023-06-24T14:54:57;5.85;;;1.35;;
77591;SDS011;66891;46.884;17.436;2023-06-24T14:57:24;6.45;;;2.00;;
77591;SDS011;66891;46.884;17.436;2023-06-24T14:59:52;7.45;;;2.30;;
77591;SDS011;66891;46.884;17.436;2023-06-24T15:02:19;6.65;;;2.05;;
77591;SDS011;66891;46.884;17.436;2023-06-24T15:04:48;5.93;;;1.80;;
77591;SDS011;66891;46.884;17.436;2023-06-24T15:07:16;5.65;;;1.58;;
77591;SDS011;66891;46.884;17.436;2023-06-24T15:09:43;5.93;;;2.20;;
77591;SDS011;66891;46.884;17.436;2023-06-24T15:12:11;6.30;;;2.05;;
77591;SDS011;66891;46.884;17.436;2023-06-24T15:14:38;7.38;;;2.42;;
77591;SDS011;66891;46.884;17.436;2023-06-24T15:17:05;6.17;;;1.70;;
77591;SDS011;66891;46.884;17.436;2023-06-24T15:19:33;7.95;;;2.65;;
77591;SDS011;66891;46.884;17.436;2023-06-24T15:22:02;7.00;;;3.00;;
77591;SDS011;66891;46.884;17.436;2023-06-24T15:24:29;7.38;;;2.75;;
77591;SDS011;66891;46.884;17.436;2023-06-24T15:26:58;7.32;;;2.95;;
77591;SDS011;66891;46.884;17.436;2023-06-24T15:29:25;7.50;;;2.73;;
77591;SDS011;66891;46.884;17.436;2023-06-24T15:31:53;7.07;;;2.55;;
77591;SDS011;66891;46.884;17.436;2023-06-24T15:34:20;7.90;;;2.83;;
77591;SDS011;66891;46.884;17.436;2023-06-24T15:36:48;8.07;;;2.83;;
77591;SDS011;66891;46.884;17.436;2023-06-24T15:39:17;7.93;;;2.70;;
77591;SDS011;66891;46.884;17.436;2023-06-24T15:41:46;7.80;;;2.73;;
77591;SDS011;66891;46.884;17.436;2023-06-24T15:44:16;7.40;;;2.85;;
77591;SDS011;66891;46.884;17.436;2023-06-24T15:46:44;7.43;;;3.08;;
77591;SDS011;66891;46.884;17.436;2023-06-24T15:49:14;7.20;;;2.92;;
77591;SDS011;66891;46.884;17.436;2023-06-24T15:51:42;8.65;;;3.28;;
77591;SDS011;66891;46.884;17.436;2023-06-24T15:54:10;6.33;;;1.63;;
77591;SDS011;66891;46.884;17.436;2023-06-24T15:56:39;7.57;;;2.80;;
77591;SDS011;66891;46.884;17.436;2023-06-24T15:59:06;7.60;;;2.20;;
77591;SDS011;66891;46.884;17.436;2023-06-24T16:01:34;7.43;;;2.30;;
77591;SDS011;66891;46.884;17.436;2023-06-24T16:04:01;8.05;;;3.13;;
77591;SDS011;66891;46.884;17.436;2023-06-24T16:06:29;6.50;;;2.40;;
77591;SDS011;66891;46.884;17.436;2023-06-24T16:08:56;6.53;;;2.22;;
77591;SDS011;66891;46.884;17.436;2023-06-24T16:11:24;7.22;;;2.95;;
77591;SDS011;66891;46.884;17.436;2023-06-24T16:13:54;6.97;;;3.10;;
77591;SDS011;66891;46.884;17.436;2023-06-24T16:16:21;7.60;;;2.88;;
77591;SDS011;66891;46.884;17.436;2023-06-24T16:18:51;7.20;;;2.53;;
77591;SDS011;66891;46.884;17.436;2023-06-24T16:21:19;6.85;;;2.40;;
77591;SDS011;66891;46.884;17.436;2023-06-24T16:23:46;6.90;;;2.60;;
77591;SDS011;66891;46.884;17.436;2023-06-24T16:26:14;7.28;;;2.75;;
77591;SDS011;66891;46.884;17.436;2023-06-24T16:28:42;6.53;;;2.30;;
77591;SDS011;66891;46.884;17.436;2023-06-24T16:31:11;7.33;;;3.10;;
77591;SDS011;66891;46.884;17.436;2023-06-24T16:33:41;5.57;;;1.70;;
77591;SDS011;66891;46.884;17.436;2023-06-24T16:36:08;9.18;;;3.28;;
77591;SDS011;66891;46.884;17.436;2023-06-24T16:38:35;7.43;;;2.58;;
77591;SDS011;66891;46.884;17.436;2023-06-24T16:41:03;6.20;;;2.40;;
77591;SDS011;66891;46.884;17.436;2023-06-24T16:43:30;7.77;;;2.83;;
77591;SDS011;66891;46.884;17.436;2023-06-24T16:45:58;8.43;;;2.83;;
77591;SDS011;66891;46.884;17.436;2023-06-24T16:48:26;7.38;;;2.85;;
77591;SDS011;66891;46.884;17.436;2023-06-24T16:50:54;7.07;;;2.40;;
77591;SDS011;66891;46.884;17.436;2023-06-24T16:53:21;7.88;;;3.42;;
77591;SDS011;66891;46.884;17.436;2023-06-24T16:55:48;7.43;;;3.07;;
77591;SDS011;66891;46.884;17.436;2023-06-24T16:58:16;7.55;;;3.30;;
77591;SDS011;66891;46.884;17.436;2023-06-24T17:00:43;7.47;;;3.35;;
77591;SDS011;66891;46.884;17.436;2023-06-24T17:03:11;8.23;;;3.15;;
77591;SDS011;66891;46.884;17.436;2023-06-24T17:05:42;7.78;;;3.13;;
77591;SDS011;66891;46.884;17.436;2023-06-24T17:08:10;7.27;;;2.50;;
77591;SDS011;66891;46.884;17.436;2023-06-24T17:10:38;7.93;;;3.20;;
77591;SDS011;66891;46.884;17.436;2023-06-24T17:13:05;8.45;;;3.38;;
77591;SDS011;66891;46.884;17.436;2023-06-24T17:15:33;7.75;;;3.00;;
77591;SDS011;66891;46.884;17.436;2023-06-24T17:18:00;7.30;;;2.88;;
77591;SDS011;66891;46.884;17.436;2023-06-24T17:20:28;9.13;;;3.10;;
77591;SDS011;66891;46.884;17.436;2023-06-24T17:22:56;7.97;;;3.50;;
77591;SDS011;66891;46.884;17.436;2023-06-24T17:25:24;7.97;;;2.63;;
77591;SDS011;66891;46.884;17.436;2023-06-24T17:27:51;7.45;;;3.10;;
77591;SDS011;66891;46.884;17.436;2023-06-24T17:30:19;7.70;;;3.08;;
77591;SDS011;66891;46.884;17.436;2023-06-24T17:32:46;8.17;;;2.90;;
77591;SDS011;66891;46.884;17.436;2023-06-24T17:35:14;7.97;;;2.50;;
77591;SDS011;66891;46.884;17.436;2023-06-24T17:37:41;7.25;;;2.90;;
77591;SDS011;66891;46.884;17.436;2023-06-24T17:40:12;7.32;;;2.83;;
77591;SDS011;66891;46.884;17.436;2023-06-24T17:42:40;8.23;;;3.15;;
77591;SDS011;66891;46.884;17.436;2023-06-24T17:45:08;8.50;;;3.40;;
77591;SDS011;66891;46.884;17.436;2023-06-24T17:47:35;7.57;;;3.15;;
77591;SDS011;66891;46.884;17.436;2023-06-24T17:50:03;7.43;;;3.15;;
77591;SDS011;66891;46.884;17.436;2023-06-24T17:52:31;7.15;;;2.92;;
77591;SDS011;66891;46.884;17.436;2023-06-24T17:54:58;7.53;;;2.95;;
77591;SDS011;66891;46.884;17.436;2023-06-24T17:57:27;8.30;;;2.90;;
77591;SDS011;66891;46.884;17.436;2023-06-24T17:59:54;7.82;;;2.92;;